Time;durP1;ratioP1;P1;durP2;ratioP2;P2;SDS_P1;SDS_P2;PMS_P1;PMS_P2;Temp;Humidity;BMP_temperature;BMP_pressure;BME280_temperature;BME280_humidity;BME280_pressure;Samples;Min_cycle;Max_cycle;Signal;HPM_P1;HPM_P2
2022/04/06 00:00:10;;;;;;;1.07;0.40;;;;;;;8.52;76.83;96981.56;6182328;28;20244;-82
2022/04/06 00:03:13;;;;;;;0.77;0.50;;;;;;;8.61;75.92;96982.59;6181326;28;20595;-82
2022/04/06 00:06:15;;;;;;;0.73;0.60;;;;;;;8.59;76.22;96989.78;6180218;28;20221;-82
2022/04/06 00:09:39;;;;;;;0.40;0.40;;;;;;;8.59;76.18;96991.56;6166961;28;20230;-82
2022/04/06 00:12:42;;;;;;;0.50;0.50;;;;;;;8.56;75.94;96983.97;6180683;28;20231;-82
2022/04/06 00:15:44;;;;;;;0.47;0.47;;;;;;;8.53;76.29;96985.03;6164098;28;20244;-82
2022/04/06 00:18:46;;;;;;;0.33;0.33;;;;;;;8.55;75.99;96983.13;6179938;28;20241;-82
2022/04/06 00:21:49;;;;;;;0.57;0.50;;;;;;;8.51;76.05;96985.16;6180840;28;20248;-82
2022/04/06 00:24:51;;;;;;;0.50;0.50;;;;;;;8.50;76.21;96995.81;6164668;28;20240;-82
2022/04/06 00:27:53;;;;;;;0.50;0.50;;;;;;;8.43;75.85;96973.63;6179700;28;20231;-82
2022/04/06 00:30:56;;;;;;;0.37;0.37;;;;;;;8.54;75.91;96981.44;6183171;28;20239;-82
2022/04/06 00:33:58;;;;;;;0.40;0.40;;;;;;;8.55;75.60;96985.75;6163753;28;20327;-82
2022/04/06 00:37:00;;;;;;;0.43;0.40;;;;;;;8.45;76.22;96979.59;6163634;28;20234;-82
2022/04/06 00:40:05;;;;;;;0.40;0.40;;;;;;;8.35;76.51;96984.78;6163817;28;20351;-83
2022/04/06 00:43:10;;;;;;;2.03;0.37;;;;;;;8.40;75.89;96993.09;6180307;28;20298;-82
2022/04/06 00:46:13;;;;;;;0.50;0.40;;;;;;;8.48;75.93;96988.03;6179464;28;20251;-82
2022/04/06 00:49:15;;;;;;;0.53;0.50;;;;;;;8.57;75.44;96988.25;6162948;28;20276;-82
2022/04/06 00:52:19;;;;;;;0.57;0.57;;;;;;;8.65;74.48;96980.56;6160216;28;20246;-83
2022/04/06 00:55:23;;;;;;;0.50;0.50;;;;;;;8.65;75.16;96976.13;6164525;28;20232;-82
2022/04/06 00:58:25;;;;;;;0.60;0.60;;;;;;;8.69;74.86;96966.16;6179644;28;20236;-82
2022/04/06 01:01:28;;;;;;;0.50;0.50;;;;;;;8.73;74.71;96978.13;6163312;28;20221;-82
2022/04/06 01:04:30;;;;;;;0.60;0.60;;;;;;;8.72;75.28;96972.00;6163284;28;20598;-82
2022/04/06 01:07:34;;;;;;;0.47;0.47;;;;;;;8.72;74.64;96977.28;6163063;28;20592;-82
2022/04/06 01:10:36;;;;;;;0.63;0.50;;;;;;;8.86;74.04;96976.13;6180430;28;20252;-83
2022/04/06 01:13:39;;;;;;;0.60;0.60;;;;;;;8.82;74.61;96966.81;6162958;28;20721;-82
2022/04/06 01:16:57;;;;;;;0.40;0.40;;;;;;;8.73;74.87;96992.09;6181298;28;20240;-82
2022/04/06 01:20:00;;;;;;;0.87;0.67;;;;;;;8.76;74.76;96983.13;6171262;28;20244;-82
2022/04/06 01:23:04;;;;;;;0.60;0.50;;;;;;;8.79;75.00;96983.69;6169482;28;20319;-82
2022/04/06 01:26:07;;;;;;;0.80;0.60;;;;;;;8.81;74.03;96988.81;6162804;28;20238;-82
2022/04/06 01:29:09;;;;;;;1.03;0.50;;;;;;;8.85;74.25;96984.97;6165050;28;20235;-82
2022/04/06 01:32:18;;;;;;;0.63;0.60;;;;;;;8.85;74.68;96975.28;6179035;28;20225;-82
2022/04/06 01:35:20;;;;;;;0.67;0.40;;;;;;;8.88;74.75;96966.31;6178429;28;20233;-82
2022/04/06 01:38:23;;;;;;;0.50;0.50;;;;;;;8.93;74.35;96968.53;6178314;28;20247;-82
2022/04/06 01:41:32;;;;;;;0.60;0.40;;;;;;;8.91;74.23;96970.47;6180057;28;20611;-82
2022/04/06 01:44:35;;;;;;;0.30;0.30;;;;;;;8.83;75.10;96966.69;6178200;28;20834;-83
2022/04/06 01:47:37;;;;;;;0.30;0.30;;;;;;;8.71;75.02;96965.09;6178796;28;20233;-83
2022/04/06 01:53:59;;;;;;;0.40;0.30;;;;;;;8.60;75.96;96969.56;6182226;28;20638;-82
2022/04/06 01:57:02;;;;;;;0.30;0.30;;;;;;;8.51;76.05;96973.81;6144772;28;20717;-83
2022/04/06 02:00:09;;;;;;;0.37;0.37;;;;;;;8.55;76.02;96971.78;6185467;28;20295;-83
2022/04/06 02:03:17;;;;;;;0.40;0.33;;;;;;;8.45;76.87;96964.66;6184820;28;20212;-82
2022/04/06 02:06:21;;;;;;;0.40;0.40;;;;;;;8.41;76.61;96976.38;6182833;28;20235;-82
2022/04/06 02:09:23;;;;;;;0.83;0.40;;;;;;;8.38;77.13;96978.44;6166948;28;20310;-82
2022/04/06 02:12:26;;;;;;;0.30;0.30;;;;;;;8.38;77.33;96973.19;6167794;28;20732;-82
2022/04/06 02:15:28;;;;;;;1.63;0.40;;;;;;;8.40;77.86;96961.56;6183484;28;20236;-82
2022/04/06 02:18:31;;;;;;;0.50;0.50;;;;;;;8.38;77.17;96963.50;6184251;28;20231;-83
2022/04/06 02:21:33;;;;;;;1.13;0.50;;;;;;;8.30;77.58;96965.88;6183862;28;20252;-83
2022/04/06 02:24:36;;;;;;;0.33;0.33;;;;;;;8.33;77.75;96970.09;6182439;28;20275;-82
2022/04/06 02:27:52;;;;;;;0.50;0.50;;;;;;;8.29;77.63;96966.81;6166709;28;20251;-82
2022/04/06 02:30:54;;;;;;;1.03;0.40;;;;;;;8.20;78.04;96972.00;6189346;28;20237;-82
2022/04/06 02:33:56;;;;;;;0.77;0.60;;;;;;;8.10;78.63;96987.69;6182813;28;20233;-82
2022/04/06 02:36:59;;;;;;;0.67;0.67;;;;;;;8.15;78.36;96981.13;6183862;28;20230;-82
2022/04/06 02:40:01;;;;;;;1.60;0.40;;;;;;;8.23;77.65;96982.28;6183006;28;20237;-82
2022/04/06 02:43:03;;;;;;;0.80;0.60;;;;;;;8.22;78.34;96972.72;6183352;28;20580;-82
2022/04/06 02:46:06;;;;;;;0.40;0.40;;;;;;;8.23;78.35;96992.78;6180542;28;20613;-82
2022/04/06 02:49:08;;;;;;;0.80;0.40;;;;;;;8.30;78.00;96986.06;6174041;28;20284;-83
2022/04/06 02:52:10;;;;;;;0.37;0.37;;;;;;;8.28;77.74;96985.38;6144361;28;20252;-82
2022/04/06 02:55:13;;;;;;;0.40;0.40;;;;;;;8.23;77.98;96993.63;6180051;28;20227;-82
2022/04/06 02:58:16;;;;;;;0.40;0.40;;;;;;;8.22;78.43;96999.84;6181042;28;20304;-83
2022/04/06 03:01:18;;;;;;;0.30;0.30;;;;;;;8.20;78.30;97000.91;6165512;28;20243;-82
2022/04/06 03:04:20;;;;;;;0.40;0.40;;;;;;;8.22;78.43;97002.47;6181944;28;20253;-82
2022/04/06 03:07:22;;;;;;;0.40;0.40;;;;;;;8.30;78.12;97000.03;6181248;28;20235;-82
2022/04/06 03:10:25;;;;;;;0.37;0.37;;;;;;;8.39;77.33;97015.09;6183209;28;20232;-82
2022/04/06 03:13:27;;;;;;;0.40;0.40;;;;;;;8.54;76.57;97004.28;6180923;28;20232;-82
2022/04/06 03:16:30;;;;;;;0.73;0.30;;;;;;;8.63;76.50;96993.84;6180716;28;20600;-82
2022/04/06 03:19:32;;;;;;;0.30;0.30;;;;;;;8.55;76.54;96979.66;6180797;28;20239;-82
2022/04/06 03:22:35;;;;;;;0.40;0.40;;;;;;;8.49;77.54;96994.13;6183743;28;20227;-82
2022/04/06 03:25:37;;;;;;;0.93;0.40;;;;;;;8.50;77.42;96996.63;6184195;28;20243;-83
2022/04/06 03:28:39;;;;;;;0.43;0.20;;;;;;;8.51;77.22;97002.75;6162546;28;20615;-82
2022/04/06 03:31:41;;;;;;;0.33;0.30;;;;;;;8.55;76.95;96987.56;6200772;28;20235;-82
2022/04/06 03:34:43;;;;;;;0.30;0.30;;;;;;;8.60;76.82;96988.81;6162069;28;20235;-82
2022/04/06 03:37:46;;;;;;;0.60;0.30;;;;;;;8.63;76.44;96980.69;6173534;28;20236;-82
2022/04/06 03:40:48;;;;;;;0.30;0.30;;;;;;;8.65;76.12;96981.41;6180850;28;20329;-82
2022/04/06 03:43:52;;;;;;;0.30;0.30;;;;;;;8.66;76.13;96983.06;6181983;28;20238;-82
2022/04/06 03:46:56;;;;;;;0.20;0.20;;;;;;;8.60;75.93;96985.34;6187317;28;20580;-82
2022/04/06 03:49:59;;;;;;;0.97;0.20;;;;;;;8.47;75.93;96988.19;6164433;28;20759;-82
2022/04/06 03:53:01;;;;;;;0.50;0.50;;;;;;;8.45;76.69;96976.97;6181176;28;20247;-83
2022/04/06 03:56:04;;;;;;;0.40;0.40;;;;;;;8.52;76.56;96986.00;6181879;28;20704;-83
2022/04/06 03:59:06;;;;;;;0.43;0.43;;;;;;;8.54;76.39;96973.56;6181453;28;20765;-82
2022/04/06 04:02:08;;;;;;;0.97;0.80;;;;;;;8.57;76.36;96988.25;6165375;28;20232;-82
2022/04/06 04:05:11;;;;;;;0.50;0.50;;;;;;;8.59;75.71;96992.41;6164016;28;20708;-82
2022/04/06 04:08:13;;;;;;;0.97;0.47;;;;;;;8.72;75.39;96989.59;6181254;28;20615;-82
2022/04/06 04:11:15;;;;;;;0.83;0.70;;;;;;;8.76;75.41;96989.22;6180205;28;20629;-82
2022/04/06 04:14:18;;;;;;;2.07;0.70;;;;;;;8.75;75.15;96982.28;6164081;28;20224;-82
2022/04/06 04:17:20;;;;;;;0.43;0.43;;;;;;;8.76;75.45;96983.13;6180303;28;20798;-82
2022/04/06 04:20:22;;;;;;;0.73;0.40;;;;;;;8.66;75.47;96983.06;6167102;28;20460;-82
2022/04/06 04:23:24;;;;;;;1.17;0.60;;;;;;;8.66;75.49;96980.44;6179588;28;20236;-82
2022/04/06 04:26:28;;;;;;;1.77;0.70;;;;;;;8.60;75.40;96980.09;6179647;28;20245;-82
2022/04/06 04:29:30;;;;;;;0.87;0.70;;;;;;;8.57;75.86;96978.56;6165892;28;20656;-82
2022/04/06 04:32:32;;;;;;;0.57;0.57;;;;;;;8.53;76.09;96969.25;6191456;28;20234;-82
2022/04/06 04:35:34;;;;;;;1.23;0.83;;;;;;;8.66;75.67;96975.19;6182054;28;20746;-82
2022/04/06 04:38:39;;;;;;;1.63;0.60;;;;;;;8.70;75.46;96970.47;6179604;28;20514;-82
2022/04/06 04:41:41;;;;;;;0.60;0.60;;;;;;;8.74;75.17;96970.09;6164144;28;20232;-82
2022/04/06 04:44:43;;;;;;;0.90;0.90;;;;;;;8.72;74.63;96977.28;6163336;28;20300;-82
2022/04/06 04:47:45;;;;;;;1.10;1.00;;;;;;;8.72;75.31;96981.69;6181335;28;20245;-82
2022/04/06 04:50:48;;;;;;;1.13;0.93;;;;;;;8.70;74.47;96966.03;6179413;28;20244;-82
2022/04/06 04:53:50;;;;;;;0.60;0.60;;;;;;;8.69;74.54;96966.16;6180758;28;20730;-82
2022/04/06 04:56:52;;;;;;;0.70;0.43;;;;;;;8.61;74.83;96971.25;6178848;28;20601;-82
2022/04/06 04:59:54;;;;;;;0.63;0.63;;;;;;;8.55;75.34;96969.13;6162439;28;20236;-82
2022/04/06 05:02:56;;;;;;;0.80;0.53;;;;;;;8.55;75.12;96969.97;6180956;28;20268;-82
2022/04/06 05:05:59;;;;;;;1.40;0.70;;;;;;;8.52;75.45;96971.06;6179079;28;20716;-82
2022/04/06 05:09:01;;;;;;;0.50;0.50;;;;;;;8.60;75.32;96974.84;6140083;28;20223;-83
2022/04/06 05:12:03;;;;;;;0.97;0.77;;;;;;;8.65;74.62;96976.13;6180873;28;20221;-83
2022/04/06 05:15:06;;;;;;;0.90;0.50;;;;;;;8.77;74.34;96984.78;6179530;28;20221;-82
2022/04/06 05:18:09;;;;;;;0.77;0.50;;;;;;;8.69;74.37;96982.78;6180873;28;20238;-82
2022/04/06 05:21:11;;;;;;;0.57;0.50;;;;;;;8.63;74.88;96987.75;6181266;28;20294;-82
2022/04/06 05:24:13;;;;;;;0.50;0.50;;;;;;;8.62;75.05;96986.06;6180522;28;20220;-82
2022/04/06 05:27:15;;;;;;;0.40;0.40;;;;;;;8.56;74.72;96982.16;6177861;28;20239;-82
2022/04/06 05:30:20;;;;;;;0.50;0.50;;;;;;;8.53;75.42;96977.16;6165362;28;20589;-83
2022/04/06 05:33:22;;;;;;;0.70;0.70;;;;;;;8.56;75.36;96973.44;6162816;28;20223;-82
2022/04/06 05:36:28;;;;;;;2.30;0.60;;;;;;;8.50;74.97;96980.88;6178005;28;20241;-82
2022/04/06 05:39:31;;;;;;;1.47;0.60;;;;;;;8.58;75.30;96982.03;6162659;28;20245;-82
2022/04/06 05:42:33;;;;;;;1.03;0.50;;;;;;;8.47;75.96;96986.41;6178616;28;20232;-82
2022/04/06 05:45:36;;;;;;;0.50;0.50;;;;;;;8.41;75.77;96993.94;6179672;28;20238;-82
2022/04/06 05:48:39;;;;;;;1.37;0.60;;;;;;;8.41;75.22;96992.16;6162745;28;20728;-82
2022/04/06 05:51:41;;;;;;;0.60;0.60;;;;;;;8.44;75.63;96999.78;6178037;28;20707;-82
2022/04/06 05:54:43;;;;;;;0.50;0.50;;;;;;;8.48;76.13;97005.63;6162218;28;20235;-82
2022/04/06 05:57:45;;;;;;;0.50;0.50;;;;;;;8.85;73.74;97004.22;6180082;28;20237;-82
2022/04/06 06:00:47;;;;;;;1.00;0.60;;;;;;;8.98;73.92;97001.41;6161864;28;20230;-82
2022/04/06 06:03:50;;;;;;;1.70;0.67;;;;;;;9.01;73.32;97006.38;6177022;28;20233;-82
2022/04/06 06:06:52;;;;;;;0.60;0.50;;;;;;;8.89;73.67;97021.41;6177567;28;20240;-82
2022/04/06 06:09:54;;;;;;;1.90;0.80;;;;;;;8.97;73.66;97014.69;6161924;28;20758;-82
2022/04/06 06:12:58;;;;;;;1.20;0.60;;;;;;;9.22;72.75;97016.91;6178235;28;20236;-82
2022/04/06 06:16:00;;;;;;;0.73;0.60;;;;;;;9.33;72.28;97006.28;6178058;28;20244;-82
2022/04/06 06:19:02;;;;;;;1.13;0.60;;;;;;;9.51;71.37;97015.22;6177643;28;20248;-82
2022/04/06 06:22:05;;;;;;;0.90;0.90;;;;;;;9.67;71.20;97011.28;6177548;28;20729;-83
2022/04/06 06:25:07;;;;;;;0.57;0.57;;;;;;;9.82;70.60;97007.28;6161651;28;20614;-82
2022/04/06 06:28:10;;;;;;;0.63;0.60;;;;;;;9.83;70.74;97004.50;6177830;28;20624;-83
2022/04/06 06:31:12;;;;;;;1.30;0.87;;;;;;;9.92;69.83;97016.03;6177855;28;20738;-83
2022/04/06 06:34:15;;;;;;;0.50;0.50;;;;;;;9.95;69.13;97018.41;6181501;28;20237;-82
2022/04/06 06:37:17;;;;;;;0.77;0.60;;;;;;;10.05;69.20;97006.09;6177671;28;20253;-83
2022/04/06 06:40:20;;;;;;;0.90;0.60;;;;;;;10.10;68.77;97018.84;6163160;28;20233;-83
2022/04/06 06:43:23;;;;;;;1.23;0.50;;;;;;;10.11;68.87;97009.97;6182324;28;20270;-83
2022/04/06 06:46:25;;;;;;;0.73;0.57;;;;;;;10.19;67.64;97020.69;6166182;28;20263;-82
2022/04/06 06:49:27;;;;;;;0.53;0.50;;;;;;;10.30;68.25;97015.28;6182607;28;20338;-82
2022/04/06 06:52:32;;;;;;;0.40;0.40;;;;;;;10.50;67.79;97009.06;6182138;28;20723;-83
2022/04/06 06:55:34;;;;;;;0.40;0.40;;;;;;;10.72;67.02;97006.13;6158610;28;20234;-83
2022/04/06 06:58:36;;;;;;;0.73;0.40;;;;;;;10.88;66.29;97002.91;6157773;28;20928;-83
2022/04/06 07:01:38;;;;;;;0.30;0.30;;;;;;;11.00;66.18;96999.13;6154240;28;20237;-82
2022/04/06 07:04:47;;;;;;;0.50;0.40;;;;;;;11.10;65.97;97005.22;6153058;28;20444;-82
2022/04/06 07:07:53;;;;;;;0.40;0.40;;;;;;;11.21;66.44;97006.88;6163936;28;20250;-83
2022/04/06 07:10:57;;;;;;;0.40;0.40;;;;;;;11.24;65.90;97005.75;6161878;28;20240;-83
2022/04/06 07:13:59;;;;;;;0.40;0.40;;;;;;;11.50;65.27;97011.22;6156578;28;20226;-82
2022/04/06 07:17:02;;;;;;;1.80;0.40;;;;;;;11.80;63.38;97001.22;6166565;28;20225;-83
2022/04/06 07:20:06;;;;;;;0.60;0.40;;;;;;;12.22;62.14;97008.63;6181470;28;20232;-83
2022/04/06 07:23:08;;;;;;;1.23;0.40;;;;;;;12.61;59.83;97000.41;6183458;28;20604;-83
2022/04/06 07:26:13;;;;;;;0.30;0.30;;;;;;;13.05;59.01;96999.44;6157257;28;20253;-83
2022/04/06 07:29:15;;;;;;;0.43;0.30;;;;;;;13.33;58.02;96999.31;6170259;28;20235;-83
2022/04/06 07:32:17;;;;;;;0.60;0.30;;;;;;;13.58;57.51;97006.38;6187370;28;20227;-83
2022/04/06 07:35:20;;;;;;;0.27;0.20;;;;;;;13.55;57.46;97007.56;6165760;28;20548;-83
2022/04/06 07:38:22;;;;;;;0.30;0.30;;;;;;;13.37;56.60;97013.91;6180849;28;20231;-83
2022/04/06 07:41:25;;;;;;;0.63;0.43;;;;;;;13.20;57.58;97016.44;6164952;28;20243;-83
2022/04/06 07:44:27;;;;;;;0.30;0.30;;;;;;;13.12;57.31;97007.59;6180192;28;20227;-83
2022/04/06 07:47:33;;;;;;;0.30;0.30;;;;;;;13.11;57.67;97004.09;6180724;28;20247;-83
2022/04/06 07:50:35;;;;;;;0.33;0.23;;;;;;;13.13;57.74;97010.06;6183361;28;20835;-83
2022/04/06 07:53:37;;;;;;;0.30;0.30;;;;;;;13.26;57.62;97010.53;6188661;28;20242;-83
2022/04/06 07:56:42;;;;;;;0.20;0.20;;;;;;;13.49;57.03;97008.16;6178234;28;20244;-84
2022/04/06 07:59:44;;;;;;;0.67;0.30;;;;;;;14.03;56.69;97009.56;6148132;28;20228;-83
2022/04/06 08:02:48;;;;;;;0.60;0.30;;;;;;;14.34;55.36;96998.38;6156050;28;20244;-83
2022/04/06 08:05:50;;;;;;;0.20;0.20;;;;;;;14.49;54.02;96994.09;6172659;28;20733;-84
2022/04/06 08:08:53;;;;;;;0.40;0.30;;;;;;;14.67;53.69;96993.97;6162996;28;20233;-83
2022/04/06 08:11:55;;;;;;;0.20;0.20;;;;;;;14.86;53.23;96987.50;6179526;28;20237;-83
2022/04/06 08:14:57;;;;;;;0.40;0.20;;;;;;;14.80;50.30;96988.13;6164256;28;20266;-84
2022/04/06 08:17:59;;;;;;;0.27;0.20;;;;;;;14.90;52.50;96991.44;6179455;28;20233;-83
2022/04/06 08:21:05;;;;;;;0.30;0.30;;;;;;;15.11;50.75;96981.97;6132230;28;20233;-83
2022/04/06 08:24:07;;;;;;;0.20;0.20;;;;;;;15.46;51.81;96988.72;6158231;28;20217;-83
2022/04/06 08:27:09;;;;;;;0.10;0.10;;;;;;;15.42;50.57;96979.41;6163466;28;20274;-83
2022/04/06 08:30:12;;;;;;;0.40;0.30;;;;;;;15.67;50.20;96979.38;6181310;28;20217;-84
2022/04/06 08:33:15;;;;;;;0.30;0.20;;;;;;;15.75;50.39;96974.03;6165802;28;20695;-83
2022/04/06 08:36:17;;;;;;;0.10;0.10;;;;;;;15.78;50.56;96977.16;6182915;28;20583;-83
2022/04/06 08:39:20;;;;;;;0.20;0.20;;;;;;;15.79;49.51;96980.66;6164639;28;20597;-83
2022/04/06 08:42:32;;;;;;;0.20;0.20;;;;;;;15.90;49.16;96972.28;6180020;28;20236;-83
2022/04/06 08:45:39;;;;;;;0.30;0.30;;;;;;;16.05;48.69;96980.38;6181685;28;20237;-84
2022/04/06 08:48:47;;;;;;;1.23;0.40;;;;;;;16.48;47.82;96985.09;6165528;28;20236;-83
2022/04/06 08:51:51;;;;;;;0.30;0.30;;;;;;;16.94;45.83;96977.13;6173371;28;20229;-84
2022/04/06 08:54:53;;;;;;;0.53;0.30;;;;;;;17.10;43.94;96984.97;6178954;28;20264;-84
2022/04/06 08:57:56;;;;;;;0.70;0.30;;;;;;;17.32;43.74;96975.25;6163576;28;20590;-84
2022/04/06 09:00:59;;;;;;;0.50;0.30;;;;;;;17.89;44.52;96966.63;6178848;28;20227;-84
2022/04/06 09:04:01;;;;;;;0.20;0.20;;;;;;;18.07;44.01;96970.53;6179964;28;20253;-84
2022/04/06 09:07:24;;;;;;;0.30;0.30;;;;;;;18.57;42.70;96959.97;6179710;28;20292;-84
2022/04/06 09:10:35;;;;;;;1.23;0.30;;;;;;;18.87;39.93;96964.19;6178792;28;20240;-84
2022/04/06 09:13:41;;;;;;;0.10;0.10;;;;;;;18.78;41.82;96960.00;6159379;28;20309;-84
2022/04/06 09:16:44;;;;;;;0.77;0.30;;;;;;;18.72;41.83;96945.56;6169703;28;20696;-84
2022/04/06 09:19:49;;;;;;;0.35;0.30;;;;;;;18.49;41.92;96952.09;6178085;28;20455;-84
2022/04/06 09:22:51;;;;;;;1.87;0.30;;;;;;;18.44;41.59;96941.97;6185107;28;20336;-84
2022/04/06 09:25:53;;;;;;;0.30;0.30;;;;;;;18.69;41.63;96937.94;6181933;28;20229;-84
2022/04/06 09:28:56;;;;;;;0.83;0.20;;;;;;;19.03;40.45;96931.84;6165430;28;20656;-85
2022/04/06 09:32:08;;;;;;;0.53;0.23;;;;;;;19.58;40.37;96927.47;6190584;28;20225;-84
2022/04/06 09:35:32;;;;;;;1.57;0.30;;;;;;;19.67;40.15;96933.50;6166095;28;20221;-84
2022/04/06 09:38:34;;;;;;;1.30;0.40;;;;;;;18.96;38.55;96928.31;6179421;28;20236;-84
2022/04/06 09:42:00;;;;;;;0.30;0.30;;;;;;;18.22;41.09;96933.13;6163257;28;20224;-84
2022/04/06 09:48:24;;;;;;;0.20;0.20;;;;;;;18.06;41.13;96928.84;6179816;28;20586;-84
2022/04/06 09:51:50;;;;;;;1.60;0.30;;;;;;;18.72;39.62;96920.69;6178707;28;20276;-83
2022/04/06 09:54:52;;;;;;;0.20;0.20;;;;;;;18.68;39.60;96922.06;6163243;28;20688;-84
2022/04/06 09:57:58;;;;;;;0.20;0.20;;;;;;;18.85;40.76;96915.47;6178709;28;20604;-84
2022/04/06 10:01:00;;;;;;;1.50;0.30;;;;;;;19.50;38.68;96908.91;6179794;28;20229;-84
2022/04/06 10:04:05;;;;;;;1.50;0.30;;;;;;;20.06;37.70;96900.72;6177616;28;20259;-84
2022/04/06 10:07:07;;;;;;;0.70;0.60;;;;;;;20.30;36.35;96889.41;6178064;28;20256;-84
2022/04/06 10:10:13;;;;;;;0.20;0.20;;;;;;;20.39;36.28;96893.59;6177840;28;20232;-84
2022/04/06 10:13:18;;;;;;;0.37;0.20;;;;;;;20.63;36.82;96890.31;6161878;28;20733;-84
2022/04/06 10:16:41;;;;;;;0.20;0.20;;;;;;;21.28;36.20;96887.81;6181499;28;20600;-84
2022/04/06 10:19:51;;;;;;;0.20;0.20;;;;;;;22.09;34.23;96877.41;6166931;28;20240;-84
2022/04/06 10:23:05;;;;;;;0.20;0.20;;;;;;;22.05;33.74;96869.00;6183539;28;20291;-83
2022/04/06 10:26:22;;;;;;;0.10;0.10;;;;;;;22.28;33.48;96862.22;6182352;28;20708;-84
2022/04/06 10:29:25;;;;;;;0.30;0.20;;;;;;;21.71;33.28;96855.88;6168724;28;20233;-84
2022/04/06 10:32:39;;;;;;;0.50;0.20;;;;;;;21.73;33.84;96853.81;6162230;28;20312;-84
2022/04/06 10:35:41;;;;;;;1.13;0.20;;;;;;;21.60;33.62;96840.44;6191516;28;20228;-84
2022/04/06 10:39:10;;;;;;;0.30;0.30;;;;;;;22.25;33.97;96835.78;6180273;28;20712;-84
2022/04/06 10:42:28;;;;;;;0.30;0.20;;;;;;;20.93;33.94;96825.53;6167402;28;20615;-84
2022/04/06 10:45:33;;;;;;;1.40;0.30;;;;;;;20.91;35.18;96833.78;6198521;28;20601;-84
2022/04/06 10:49:01;;;;;;;0.40;0.40;;;;;;;21.17;34.02;96832.91;6183185;28;20241;-84
2022/04/06 10:52:24;;;;;;;0.20;0.20;;;;;;;21.91;33.60;96826.25;6181658;28;20295;-84
2022/04/06 10:55:27;;;;;;;0.50;0.30;;;;;;;22.64;33.36;96818.53;6165667;28;20234;-84
2022/04/06 10:58:55;;;;;;;0.90;0.40;;;;;;;22.24;32.65;96818.00;6165420;28;20234;-84
2022/04/06 11:02:25;;;;;;;0.20;0.20;;;;;;;22.46;32.41;96812.03;6179082;28;20259;-83
2022/04/06 11:05:45;;;;;;;0.40;0.40;;;;;;;22.63;31.60;96814.19;6180960;28;20225;-84
2022/04/06 11:12:20;;;;;;;0.27;0.27;;;;;;;22.63;32.64;96800.72;6180391;28;20240;-84
2022/04/06 11:15:37;;;;;;;1.80;0.30;;;;;;;22.67;30.51;96802.75;6181260;28;20306;-84
2022/04/06 11:18:45;;;;;;;0.40;0.40;;;;;;;21.90;31.40;96798.53;6159474;28;20234;-84
2022/04/06 11:21:55;;;;;;;0.80;0.40;;;;;;;22.07;32.60;96790.81;6140838;28;20222;-84
2022/04/06 11:24:59;;;;;;;0.47;0.47;;;;;;;22.13;32.08;96784.59;6179698;28;20621;-84
2022/04/06 11:28:09;;;;;;;0.40;0.40;;;;;;;22.39;31.84;96788.94;6180943;28;20233;-84
2022/04/06 11:31:11;;;;;;;1.30;0.40;;;;;;;22.22;32.32;96785.13;6164088;28;20737;-84
2022/04/06 11:34:32;;;;;;;0.80;0.50;;;;;;;22.50;32.27;96788.22;6168634;28;20241;-84
2022/04/06 11:37:48;;;;;;;0.60;0.50;;;;;;;23.11;31.36;96768.59;6176182;28;20228;-84
2022/04/06 11:40:56;;;;;;;0.80;0.57;;;;;;;23.39;31.11;96768.06;6180535;28;20780;-84
2022/04/06 11:44:01;;;;;;;1.37;0.70;;;;;;;23.32;30.79;96753.88;6180242;28;20225;-84
2022/04/06 11:47:03;;;;;;;3.33;0.73;;;;;;;22.87;31.93;96756.84;6164898;28;20245;-85
2022/04/06 11:50:10;;;;;;;0.70;0.70;;;;;;;22.58;30.43;96750.28;6181250;28;20716;-84
2022/04/06 11:53:18;;;;;;;2.57;0.70;;;;;;;22.05;31.14;96748.06;6164258;28;20233;-84
2022/04/06 11:56:22;;;;;;;0.73;0.73;;;;;;;22.66;30.57;96744.59;6179616;28;20233;-84
2022/04/06 11:59:26;;;;;;;1.10;0.70;;;;;;;22.10;30.82;96728.56;6164176;28;20739;-84
2022/04/06 12:02:28;;;;;;;1.80;0.80;;;;;;;21.92;31.57;96731.16;6163590;28;20225;-84
2022/04/06 12:05:33;;;;;;;0.80;0.80;;;;;;;22.02;31.80;96721.59;6180270;28;20586;-84
2022/04/06 12:08:36;;;;;;;1.10;1.00;;;;;;;22.36;31.34;96704.13;6179198;28;20305;-84
2022/04/06 12:11:39;;;;;;;2.00;1.40;;;;;;;21.93;31.63;96704.09;6180475;28;20236;-84
2022/04/06 12:14:41;;;;;;;3.77;1.50;;;;;;;22.17;31.22;96696.25;6181258;28;20327;-84
2022/04/06 12:17:45;;;;;;;1.20;1.10;;;;;;;23.23;31.72;96699.50;6179691;28;20599;-83
2022/04/06 12:20:48;;;;;;;1.40;1.30;;;;;;;23.97;29.60;96686.66;6181224;28;20694;-83
2022/04/06 12:23:54;;;;;;;2.20;1.97;;;;;;;23.61;28.57;96688.44;6163684;28;20245;-83
2022/04/06 12:26:56;;;;;;;4.40;1.93;;;;;;;23.35;29.99;96678.03;6179292;28;20239;-83
2022/04/06 12:30:09;;;;;;;2.20;1.40;;;;;;;23.00;30.84;96680.53;6171296;28;20574;-83
2022/04/06 12:33:11;;;;;;;3.00;1.80;;;;;;;22.44;30.53;96684.25;6179032;28;20315;-83
2022/04/06 12:36:25;;;;;;;2.20;1.90;;;;;;;21.29;32.65;96672.88;6179824;28;20285;-83
2022/04/06 12:39:27;;;;;;;2.20;1.50;;;;;;;20.75;33.87;96669.81;6162568;28;20729;-83
2022/04/06 12:42:41;;;;;;;1.83;1.40;;;;;;;21.24;33.02;96670.03;6180450;28;20231;-83
2022/04/06 12:45:47;;;;;;;1.63;1.30;;;;;;;21.23;33.46;96660.34;6180182;28;20327;-83
2022/04/06 12:48:49;;;;;;;2.17;1.97;;;;;;;21.19;32.99;96656.44;6180764;28;20233;-83
2022/04/06 12:52:18;;;;;;;2.00;1.80;;;;;;;20.87;33.85;96654.69;6178292;28;20234;-83
2022/04/06 12:55:20;;;;;;;1.80;1.53;;;;;;;20.72;33.92;96649.59;6179229;28;20245;-83
2022/04/06 12:58:23;;;;;;;2.00;1.90;;;;;;;20.62;34.28;96639.31;6180167;28;20600;-83
2022/04/06 13:01:25;;;;;;;2.20;2.00;;;;;;;21.23;33.79;96632.69;6179928;28;20709;-83
2022/04/06 13:04:28;;;;;;;2.17;1.97;;;;;;;22.13;32.03;96614.44;6180887;28;20646;-83
2022/04/06 13:07:30;;;;;;;3.13;2.17;;;;;;;21.96;31.51;96608.78;6181640;28;20240;-84
2022/04/06 13:10:38;;;;;;;3.00;2.10;;;;;;;21.30;32.74;96612.81;6165781;28;20328;-84
2022/04/06 13:13:41;;;;;;;2.80;2.10;;;;;;;21.04;33.42;96610.25;6180866;28;20317;-84
2022/04/06 13:16:43;;;;;;;2.87;2.50;;;;;;;20.76;33.08;96597.19;6179358;28;20228;-84
2022/04/06 13:19:46;;;;;;;2.77;2.30;;;;;;;21.19;33.25;96591.19;6162083;28;20256;-84
2022/04/06 13:22:51;;;;;;;3.70;2.57;;;;;;;21.63;32.37;96579.53;6178047;28;20585;-84
2022/04/06 13:25:54;;;;;;;3.10;2.80;;;;;;;22.33;32.21;96577.44;6178290;28;20240;-83
2022/04/06 13:28:56;;;;;;;2.83;2.50;;;;;;;22.45;31.82;96578.31;6179945;28;20248;-84
2022/04/06 13:31:59;;;;;;;3.43;3.13;;;;;;;22.07;30.83;96563.22;6180369;28;20266;-84
2022/04/06 13:35:01;;;;;;;3.40;2.60;;;;;;;22.80;31.35;96563.22;6162418;28;20240;-83
2022/04/06 13:38:03;;;;;;;6.27;3.57;;;;;;;22.98;30.24;96559.66;6184375;28;20244;-84
2022/04/06 13:41:05;;;;;;;5.43;3.67;;;;;;;23.12;29.77;96552.22;6165546;28;20713;-84
2022/04/06 13:44:09;;;;;;;6.87;3.93;;;;;;;23.08;29.62;96541.09;6168094;28;20225;-84
2022/04/06 13:47:11;;;;;;;3.50;3.10;;;;;;;22.71;30.41;96534.13;6178192;28;20225;-84
2022/04/06 13:50:13;;;;;;;3.57;3.03;;;;;;;23.07;29.79;96530.53;6176596;28;20229;-83
2022/04/06 13:53:15;;;;;;;3.33;3.00;;;;;;;23.35;29.65;96514.59;6164433;28;20275;-83
2022/04/06 13:56:18;;;;;;;8.10;3.37;;;;;;;23.01;29.40;96508.06;6163644;28;20224;-83
2022/04/06 13:59:20;;;;;;;3.87;3.37;;;;;;;24.00;27.96;96501.03;6161966;28;20517;-84
2022/04/06 14:02:23;;;;;;;5.00;2.90;;;;;;;25.02;26.95;96487.72;6165015;28;20725;-83
2022/04/06 14:05:25;;;;;;;4.67;3.60;;;;;;;24.51;27.37;96475.97;6177393;28;20244;-83
2022/04/06 14:08:27;;;;;;;6.13;3.23;;;;;;;25.13;27.61;96476.03;6177520;28;20236;-83
2022/04/06 14:11:29;;;;;;;4.50;3.07;;;;;;;25.75;26.57;96461.63;6165306;28;20705;-83
2022/04/06 14:14:31;;;;;;;3.00;2.33;;;;;;;25.88;25.65;96466.66;6169239;28;20229;-83
2022/04/06 14:17:35;;;;;;;3.07;2.60;;;;;;;24.46;27.71;96461.53;6175120;28;20620;-83
2022/04/06 14:20:38;;;;;;;2.33;2.00;;;;;;;22.80;30.12;96457.47;6177820;28;20343;-84
2022/04/06 14:23:41;;;;;;;3.10;2.50;;;;;;;22.71;30.05;96446.19;6177580;28;20241;-83
2022/04/06 14:26:44;;;;;;;3.60;2.50;;;;;;;21.45;31.02;96453.28;6176921;28;20796;-83
2022/04/06 14:29:46;;;;;;;4.83;2.73;;;;;;;20.69;32.87;96442.72;6177102;28;20708;-83
2022/04/06 14:32:49;;;;;;;4.00;2.93;;;;;;;20.56;33.38;96430.25;6177765;28;20237;-83
2022/04/06 14:35:51;;;;;;;3.83;2.83;;;;;;;20.74;33.22;96424.97;6177189;28;20575;-83
2022/04/06 14:38:53;;;;;;;4.97;2.60;;;;;;;21.17;32.78;96426.88;6177729;28;20237;-84
2022/04/06 14:41:56;;;;;;;2.67;2.07;;;;;;;23.64;29.20;96407.00;6171285;28;20309;-83